Time,TemperatureF,DewpointF,PressureIn,WindDirection,WindDirectionDegrees,WindSpeedMPH,WindSpeedGustMPH,Humidity,HourlyPrecipIn,Conditions,Clouds,dailyrainin,SoftwareType,DateUTC
2013-10-25 00:01:00,34.3,25.8,30.30,NW,315,0.0,4.3,71,0.00,,,0.00,WUHU21623XXSP,2013-10-25 04:01:00,
2013-10-25 00:06:00,34.3,25.8,30.30,WNW,292,1.1,4.3,71,0.00,,,0.00,WUHU21623XXSP,2013-10-25 04:06:00,
2013-10-25 00:11:00,34.2,25.7,30.30,WNW,292,0.0,2.7,71,0.00,,,0.00,WUHU21623XXSP,2013-10-25 04:11:00,
2013-10-25 00:16:00,34.0,25.5,30.31,NW,315,0.0,2.7,71,0.00,,,0.00,WUHU21623XXSP,2013-10-25 04:16:00,
2013-10-25 00:21:00,34.0,25.8,30.31,NW,315,0.0,1.6,72,0.00,,,0.00,WUHU21623XXSP,2013-10-25 04:21:00,
2013-10-25 00:26:00,33.8,25.6,30.31,NW,315,0.0,2.0,72,0.00,,,0.00,WUHU21623XXSP,2013-10-25 04:26:00,
2013-10-25 00:31:00,33.6,25.5,30.31,NW,315,2.5,2.5,72,0.00,,,0.00,WUHU21623XXSP,2013-10-25 04:31:00,
2013-10-25 00:36:00,33.6,25.5,30.30,NW,315,1.3,2.5,72,0.00,,,0.00,WUHU21623XXSP,2013-10-25 04:36:00,
2013-10-25 00:41:00,33.6,25.5,30.31,NW,315,0.0,1.8,72,0.00,,,0.00,WUHU21623XXSP,2013-10-25 04:41:00,
2013-10-25 00:46:00,33.4,25.3,30.31,NW,315,0.9,0.9,72,0.00,,,0.00,WUHU21623XXSP,2013-10-25 04:46:00,
2013-10-25 00:51:00,33.1,25.0,30.31,NW,315,0.0,0.9,72,0.00,,,0.00,WUHU21623XXSP,2013-10-25 04:51:00,
2013-10-25 00:56:00,33.1,25.0,30.31,NW,315,0.0,0.0,72,0.00,,,0.00,WUHU21623XXSP,2013-10-25 04:56:00,
2013-10-25 01:01:00,32.7,24.7,30.32,WNW,292,0.0,0.0,72,0.00,,,0.00,WUHU21623XXSP,2013-10-25 05:01:00,
2013-10-25 01:06:00,32.4,24.3,30.32,WNW,292,0.0,0.0,72,0.00,,,0.00,WUHU21623XXSP,2013-10-25 05:06:00,
2013-10-25 01:11:00,32.2,24.2,30.32,WNW,292,0.0,0.0,72,0.00,,,0.00,WUHU21623XXSP,2013-10-25 05:11:00,
2013-10-25 01:16:00,32.2,24.2,30.31,NW,315,0.0,0.0,72,0.00,,,0.00,WUHU21623XXSP,2013-10-25 05:16:00,
2013-10-25 01:21:00,31.8,24.2,30.32,NW,315,0.0,0.0,73,0.00,,,0.00,WUHU21623XXSP,2013-10-25 05:21:00,
2013-10-25 01:26:00,31.8,24.2,30.32,NW,315,2.0,2.0,73,0.00,,,0.00,WUHU21623XXSP,2013-10-25 05:26:00,
2013-10-25 01:31:00,31.8,24.2,30.32,WNW,292,0.0,2.0,73,0.00,,,0.00,WUHU21623XXSP,2013-10-25 05:31:00,
2013-10-25 01:36:00,31.8,24.5,30.32,WNW,292,0.0,0.0,74,0.00,,,0.00,WUHU21623XXSP,2013-10-25 05:36:00,
2013-10-25 01:41:00,31.8,24.5,30.32,NW,315,0.0,0.0,74,0.00,,,0.00,WUHU21623XXSP,2013-10-25 05:41:00,
2013-10-25 01:46:00,31.8,24.5,30.32,WNW,292,0.0,0.0,74,0.00,,,0.00,WUHU21623XXSP,2013-10-25 05:46:00,
2013-10-25 01:51:00,31.8,24.5,30.32,West,270,0.0,0.0,74,0.00,,,0.00,WUHU21623XXSP,2013-10-25 05:51:00,
2013-10-25 01:56:00,31.8,24.5,30.32,West,270,0.0,0.0,74,0.00,,,0.00,WUHU21623XXSP,2013-10-25 05:56:00,
2013-10-25 02:01:00,31.6,24.3,30.32,West,270,0.0,0.0,74,0.00,,,0.00,WUHU21623XXSP,2013-10-25 06:01:00,
2013-10-25 02:06:00,30.9,23.6,30.32,West,270,0.0,0.0,74,0.00,,,0.00,WUHU21623XXSP,2013-10-25 06:06:00,
2013-10-25 02:11:00,30.6,23.2,30.32,West,270,0.0,0.0,74,0.00,,,0.00,WUHU21623XXSP,2013-10-25 06:11:00,
2013-10-25 02:16:00,30.2,22.9,30.32,West,270,0.0,0.0,74,0.00,,,0.00,WUHU21623XXSP,2013-10-25 06:16:00,
2013-10-25 02:21:00,29.8,22.5,30.32,West,270,0.0,0.0,74,0.00,,,0.00,WUHU21623XXSP,2013-10-25 06:21:00,
2013-10-25 02:26:00,29.7,22.3,30.33,West,270,0.0,0.0,74,0.00,,,0.00,WUHU21623XXSP,2013-10-25 06:26:00,
2013-10-25 02:31:00,29.7,22.3,30.33,West,270,0.0,0.0,74,0.00,,,0.00,WUHU21623XXSP,2013-10-25 06:31:00,
2013-10-25 02:36:00,29.1,22.2,30.33,West,270,0.0,0.0,75,0.00,,,0.00,WUHU21623XXSP,2013-10-25 06:36:00,
2013-10-25 02:41:00,28.9,22.0,30.33,West,270,0.0,0.0,75,0.00,,,0.00,WUHU21623XXSP,2013-10-25 06:41:00,
2013-10-25 02:46:00,28.8,21.8,30.33,West,270,0.0,0.0,75,0.00,,,0.00,WUHU21623XXSP,2013-10-25 06:46:00,
2013-10-25 02:51:00,28.6,21.6,30.34,West,270,0.0,0.0,76,0.00,,,0.00,WUHU21623XXSP,2013-10-25 06:51:00,
2013-10-25 02:56:00,28.6,21.9,30.33,West,270,0.0,0.0,76,0.00,,,0.00,WUHU21623XXSP,2013-10-25 06:56:00,
2013-10-25 03:01:00,28.6,21.9,30.34,West,270,0.0,0.0,76,0.00,,,0.00,WUHU21623XXSP,2013-10-25 07:01:00,
2013-10-25 03:06:00,28.4,22.1,30.34,West,270,0.0,0.0,77,0.00,,,0.00,WUHU21623XXSP,2013-10-25 07:06:00,
2013-10-25 03:11:00,28.2,21.9,30.34,West,270,0.0,0.0,77,0.00,,,0.00,WUHU21623XXSP,2013-10-25 07:11:00,
2013-10-25 03:16:00,28.2,21.9,30.34,West,270,0.0,0.0,77,0.00,,,0.00,WUHU21623XXSP,2013-10-25 07:16:00,
2013-10-25 03:21:00,28.0,21.7,30.34,West,270,0.0,0.0,77,0.00,,,0.00,WUHU21623XXSP,2013-10-25 07:21:00,
2013-10-25 03:26:00,27.7,21.4,30.34,West,270,0.0,0.0,77,0.00,,,0.00,WUHU21623XXSP,2013-10-25 07:26:00,
2013-10-25 03:31:00,27.7,21.4,30.34,West,270,0.0,0.0,77,0.00,,,0.00,WUHU21623XXSP,2013-10-25 07:31:00,
2013-10-25 03:36:00,27.7,21.7,30.34,West,270,0.0,0.0,78,0.00,,,0.00,WUHU21623XXSP,2013-10-25 07:36:00,
2013-10-25 03:41:00,27.5,21.5,30.34,West,270,2.7,2.7,78,0.00,,,0.00,WUHU21623XXSP,2013-10-25 07:41:00,
2013-10-25 03:46:00,27.7,21.7,30.34,West,270,0.7,2.7,78,0.00,,,0.00,WUHU21623XXSP,2013-10-25 07:46:00,
2013-10-25 03:51:00,27.7,21.7,30.34,West,270,0.0,0.7,78,0.00,,,0.00,WUHU21623XXSP,2013-10-25 07:51:00,
2013-10-25 03:56:00,27.7,22.0,30.34,West,270,0.0,0.0,79,0.00,,,0.00,WUHU21623XXSP,2013-10-25 07:56:00,
2013-10-25 04:01:00,28.0,22.3,30.34,West,270,0.0,0.0,79,0.00,,,0.00,WUHU21623XXSP,2013-10-25 08:01:00,
2013-10-25 04:06:00,28.0,22.3,30.35,West,270,0.0,0.0,79,0.00,,,0.00,WUHU21623XXSP,2013-10-25 08:06:00,
2013-10-25 04:11:00,28.0,22.3,30.34,West,270,0.0,0.0,79,0.00,,,0.00,WUHU21623XXSP,2013-10-25 08:11:00,
2013-10-25 04:16:00,28.0,22.3,30.34,West,270,0.0,0.0,79,0.00,,,0.00,WUHU21623XXSP,2013-10-25 08:16:00,
2013-10-25 04:21:00,28.0,22.3,30.35,West,270,0.0,0.0,79,0.00,,,0.00,WUHU21623XXSP,2013-10-25 08:21:00,
2013-10-25 04:26:00,28.2,22.8,30.35,WSW,247,2.7,2.7,80,0.00,,,0.00,WUHU21623XXSP,2013-10-25 08:26:00,
2013-10-25 04:31:00,28.2,22.8,30.34,WSW,247,0.0,2.7,80,0.00,,,0.00,WUHU21623XXSP,2013-10-25 08:31:00,
2013-10-25 04:36:00,28.2,22.8,30.35,WSW,247,0.0,2.7,80,0.00,,,0.00,WUHU21623XXSP,2013-10-25 08:36:00,
2013-10-25 04:41:00,28.2,22.8,30.35,WSW,247,0.0,0.0,80,0.00,,,0.00,WUHU21623XXSP,2013-10-25 08:41:00,
2013-10-25 04:46:00,28.0,22.6,30.35,WSW,247,0.0,0.0,80,0.00,,,0.00,WUHU21623XXSP,2013-10-25 08:46:00,
2013-10-25 04:51:00,27.9,22.5,30.35,WSW,247,0.0,0.0,80,0.00,,,0.00,WUHU21623XXSP,2013-10-25 08:51:00,
2013-10-25 04:56:00,27.7,22.3,30.35,WSW,247,0.0,0.0,80,0.00,,,0.00,WUHU21623XXSP,2013-10-25 08:56:00,
2013-10-25 05:01:00,27.7,22.3,30.35,WSW,247,0.0,0.0,80,0.00,,,0.00,WUHU21623XXSP,2013-10-25 09:01:00,
2013-10-25 05:06:00,27.9,22.5,30.35,WSW,247,0.0,0.0,80,0.00,,,0.00,WUHU21623XXSP,2013-10-25 09:06:00,
2013-10-25 05:11:00,27.9,22.5,30.35,WSW,247,0.0,0.0,80,0.00,,,0.00,WUHU21623XXSP,2013-10-25 09:11:00,
2013-10-25 05:16:00,27.7,22.3,30.35,WSW,247,0.0,0.0,80,0.00,,,0.00,WUHU21623XXSP,2013-10-25 09:16:00,
2013-10-25 05:21:00,27.7,22.3,30.35,WSW,247,0.0,0.0,80,0.00,,,0.00,WUHU21623XXSP,2013-10-25 09:21:00,
2013-10-25 05:26:00,27.7,22.3,30.35,WSW,247,0.0,0.0,80,0.00,,,0.00,WUHU21623XXSP,2013-10-25 09:26:00,
2013-10-25 05:31:00,27.7,22.3,30.36,WSW,247,0.0,0.0,80,0.00,,,0.00,WUHU21623XXSP,2013-10-25 09:31:00,
2013-10-25 05:36:00,27.3,22.1,30.36,WSW,247,0.0,0.0,80,0.00,,,0.00,WUHU21623XXSP,2013-10-25 09:36:00,
2013-10-25 05:41:00,27.3,21.9,30.36,WSW,247,0.0,0.0,80,0.00,,,0.00,WUHU21623XXSP,2013-10-25 09:41:00,
2013-10-25 05:46:00,27.1,21.7,30.36,WSW,247,0.0,0.0,80,0.00,,,0.00,WUHU21623XXSP,2013-10-25 09:46:00,
2013-10-25 05:51:00,27.0,21.6,30.36,WSW,247,0.0,0.0,80,0.00,,,0.00,WUHU21623XXSP,2013-10-25 09:51:00,
2013-10-25 05:56:00,26.8,21.4,30.37,WSW,247,0.0,0.0,80,0.00,,,0.00,WUHU21623XXSP,2013-10-25 09:56:00,
2013-10-25 06:01:00,26.8,21.4,30.37,WSW,247,0.0,0.0,80,0.00,,,0.00,WUHU21623XXSP,2013-10-25 10:01:00,
2013-10-25 06:06:00,26.8,21.7,30.37,WSW,247,0.0,0.0,81,0.00,,,0.00,WUHU21623XXSP,2013-10-25 10:06:00,
2013-10-25 06:11:00,26.8,21.7,30.37,WSW,247,0.0,0.0,81,0.00,,,0.00,WUHU21623XXSP,2013-10-25 10:11:00,
2013-10-25 06:16:00,26.8,21.7,30.37,WSW,247,0.0,0.0,81,0.00,,,0.00,WUHU21623XXSP,2013-10-25 10:16:00,
2013-10-25 06:21:00,26.8,21.7,30.37,WSW,247,0.0,0.0,81,0.00,,,0.00,WUHU21623XXSP,2013-10-25 10:21:00,
2013-10-25 06:26:00,27.0,21.8,30.38,WSW,247,0.0,0.0,81,0.00,,,0.00,WUHU21623XXSP,2013-10-25 10:26:00,
2013-10-25 06:31:00,27.0,21.8,30.38,WSW,247,0.0,0.0,81,0.00,,,0.00,WUHU21623XXSP,2013-10-25 10:31:00,
2013-10-25 06:36:00,27.0,21.8,30.38,WSW,247,0.0,0.0,81,0.00,,,0.00,WUHU21623XXSP,2013-10-25 10:36:00,
2013-10-25 06:41:00,26.8,21.8,30.38,WSW,247,0.0,0.0,81,0.00,,,0.00,WUHU21623XXSP,2013-10-25 10:41:00,
2013-10-25 06:46:00,26.8,21.7,30.38,WSW,247,0.0,0.0,82,0.00,,,0.00,WUHU21623XXSP,2013-10-25 10:46:00,
2013-10-25 06:51:00,26.6,21.8,30.39,WSW,247,0.0,0.0,82,0.00,,,0.00,WUHU21623XXSP,2013-10-25 10:51:00,
2013-10-25 06:56:00,26.8,22.0,30.39,WSW,247,0.0,0.0,82,0.00,,,0.00,WUHU21623XXSP,2013-10-25 10:56:00,
2013-10-25 07:01:00,26.8,22.0,30.39,WSW,247,0.0,0.0,82,0.00,,,0.00,WUHU21623XXSP,2013-10-25 11:01:00,
2013-10-25 07:06:00,26.6,21.8,30.39,WSW,247,0.0,0.0,82,0.00,,,0.00,WUHU21623XXSP,2013-10-25 11:06:00,
2013-10-25 07:11:00,26.4,21.6,30.39,WSW,247,0.0,0.0,82,0.00,,,0.00,WUHU21623XXSP,2013-10-25 11:11:00,
2013-10-25 07:16:00,26.4,21.6,30.40,WSW,247,0.0,0.0,81,0.00,,,0.00,WUHU21623XXSP,2013-10-25 11:16:00,
2013-10-25 07:21:00,26.4,21.6,30.40,WSW,247,0.0,0.0,82,0.00,,,0.00,WUHU21623XXSP,2013-10-25 11:21:00,
2013-10-25 07:26:00,26.4,21.6,30.40,WSW,247,0.0,0.0,82,0.00,,,0.00,WUHU21623XXSP,2013-10-25 11:26:00,
2013-10-25 07:31:00,26.4,21.6,30.40,WSW,247,0.0,0.0,82,0.00,,,0.00,WUHU21623XXSP,2013-10-25 11:31:00,
2013-10-25 07:36:00,26.4,21.6,30.40,WSW,247,0.0,0.0,82,0.00,,,0.00,WUHU21623XXSP,2013-10-25 11:36:00,
2013-10-25 07:41:00,26.4,21.6,30.40,WSW,247,0.0,0.0,82,0.00,,,0.00,WUHU21623XXSP,2013-10-25 11:41:00,
2013-10-25 07:46:00,26.4,21.6,30.40,WSW,247,0.0,0.0,82,0.00,,,0.00,WUHU21623XXSP,2013-10-25 11:46:00,
2013-10-25 07:51:00,26.4,21.6,30.40,WSW,247,0.0,0.0,82,0.00,,,0.00,WUHU21623XXSP,2013-10-25 11:51:00,
2013-10-25 07:56:00,26.4,21.6,30.40,WSW,247,0.0,0.0,82,0.00,,,0.00,WUHU21623XXSP,2013-10-25 11:56:00,
2013-10-25 08:01:00,26.4,21.6,30.40,WSW,247,0.0,0.0,82,0.00,,,0.00,WUHU21623XXSP,2013-10-25 12:01:00,
2013-10-25 08:06:00,26.4,21.6,30.40,WSW,247,0.0,0.0,82,0.00,,,0.00,WUHU21623XXSP,2013-10-25 12:06:00,
2013-10-25 08:11:00,26.2,21.4,30.41,WSW,247,0.0,0.0,82,0.00,,,0.00,WUHU21623XXSP,2013-10-25 12:11:00,
2013-10-25 08:16:00,26.4,21.7,30.41,WSW,247,0.0,0.0,83,0.00,,,0.00,WUHU21623XXSP,2013-10-25 12:16:00,
2013-10-25 08:21:00,26.4,21.9,30.41,WSW,247,0.0,0.0,83,0.00,,,0.00,WUHU21623XXSP,2013-10-25 12:21:00,
2013-10-25 08:26:00,26.4,21.9,30.41,WSW,247,0.0,0.0,83,0.00,,,0.00,WUHU21623XXSP,2013-10-25 12:26:00,
2013-10-25 08:31:00,26.6,21.9,30.41,WSW,247,0.0,0.0,83,0.00,,,0.00,WUHU21623XXSP,2013-10-25 12:31:00,
2013-10-25 08:36:00,26.6,22.1,30.42,WSW,247,0.0,0.0,83,0.00,,,0.00,WUHU21623XXSP,2013-10-25 12:36:00,
2013-10-25 08:41:00,26.6,22.1,30.42,WSW,247,0.0,0.0,83,0.00,,,0.00,WUHU21623XXSP,2013-10-25 12:41:00,
2013-10-25 08:46:00,26.6,22.1,30.42,WSW,247,0.0,0.0,83,0.00,,,0.00,WUHU21623XXSP,2013-10-25 12:46:00,
2013-10-25 08:51:00,26.6,22.1,30.42,WSW,247,0.0,0.0,83,0.00,,,0.00,WUHU21623XXSP,2013-10-25 12:51:00,
2013-10-25 08:56:00,26.8,22.2,30.42,WSW,247,0.0,0.0,83,0.00,,,0.00,WUHU21623XXSP,2013-10-25 12:56:00,
2013-10-25 09:01:00,27.0,22.4,30.42,WSW,247,0.0,0.0,83,0.00,,,0.00,WUHU21623XXSP,2013-10-25 13:01:00,
2013-10-25 09:06:00,27.1,22.6,30.42,WSW,247,0.0,0.0,83,0.00,,,0.00,WUHU21623XXSP,2013-10-25 13:06:00,
2013-10-25 09:12:00,27.3,22.8,30.43,WSW,247,0.0,0.0,83,0.00,,,0.00,WUHU21623XXSP,2013-10-25 13:12:00,
2013-10-25 09:17:00,27.7,23.1,30.43,SW,225,0.0,0.0,83,0.00,,,0.00,WUHU21623XXSP,2013-10-25 13:17:00,
2013-10-25 09:21:00,28.2,24.0,30.43,SW,225,0.0,0.0,84,0.00,,,0.00,WUHU21623XXSP,2013-10-25 13:21:00,
2013-10-25 09:26:00,28.6,24.3,30.43,SW,225,0.0,0.0,84,0.00,,,0.00,WUHU21623XXSP,2013-10-25 13:26:00,
2013-10-25 09:32:00,29.1,24.9,30.43,SW,225,0.0,0.0,84,0.00,,,0.00,WUHU21623XXSP,2013-10-25 13:32:00,
2013-10-25 09:37:00,29.5,25.1,30.43,West,270,0.0,0.0,84,0.00,,,0.00,WUHU21623XXSP,2013-10-25 13:37:00,
2013-10-25 09:42:00,30.0,25.8,30.43,NW,315,0.0,0.0,84,0.00,,,0.00,WUHU21623XXSP,2013-10-25 13:42:00,
2013-10-25 09:47:00,30.7,26.5,30.44,WNW,292,0.0,0.0,84,0.00,,,0.00,WUHU21623XXSP,2013-10-25 13:47:00,
2013-10-25 09:52:00,30.9,26.7,30.44,West,270,0.0,0.0,84,0.00,,,0.00,WUHU21623XXSP,2013-10-25 13:52:00,
2013-10-25 09:57:00,31.6,27.4,30.44,NW,315,0.0,0.0,84,0.00,,,0.00,WUHU21623XXSP,2013-10-25 13:57:00,
2013-10-25 10:02:00,32.2,27.6,30.43,NW,315,0.0,0.0,84,0.00,,,0.00,WUHU21623XXSP,2013-10-25 14:02:00,
2013-10-25 10:07:00,32.5,28.2,30.44,WSW,247,0.0,0.0,84,0.00,,,0.00,WUHU21623XXSP,2013-10-25 14:07:00,
2013-10-25 10:12:00,32.9,28.6,30.44,NNW,337,0.0,0.0,84,0.00,,,0.00,WUHU21623XXSP,2013-10-25 14:12:00,
2013-10-25 10:17:00,33.4,28.8,30.44,WNW,292,0.0,0.0,83,0.00,,,0.00,WUHU21623XXSP,2013-10-25 14:17:00,
2013-10-25 10:22:00,33.6,28.9,30.44,NW,315,0.7,0.7,83,0.00,,,0.00,WUHU21623XXSP,2013-10-25 14:22:00,
2013-10-25 10:27:00,34.2,29.4,30.44,WSW,247,0.0,0.7,83,0.00,,,0.00,WUHU21623XXSP,2013-10-25 14:27:00,
2013-10-25 10:32:00,34.7,30.0,30.45,WNW,292,0.0,0.0,83,0.00,,,0.00,WUHU21623XXSP,2013-10-25 14:32:00,
2013-10-25 10:37:00,35.1,30.1,30.44,WNW,292,0.0,0.7,82,0.00,,,0.00,WUHU21623XXSP,2013-10-25 14:37:00,
2013-10-25 10:42:00,35.4,30.4,30.44,WNW,292,0.0,0.7,82,0.00,,,0.00,WUHU21623XXSP,2013-10-25 14:42:00,
2013-10-25 10:47:00,36.1,30.8,30.45,NW,315,3.6,3.6,81,0.00,,,0.00,WUHU21623XXSP,2013-10-25 14:47:00,
2013-10-25 10:52:00,36.3,30.7,30.45,NW,315,2.7,3.6,80,0.00,,,0.00,WUHU21623XXSP,2013-10-25 14:52:00,
2013-10-25 10:57:00,36.9,31.3,30.45,NW,315,2.7,2.7,80,0.00,,,0.00,WUHU21623XXSP,2013-10-25 14:57:00,
2013-10-25 11:02:00,37.6,31.7,30.44,WNW,292,0.0,2.7,79,0.00,,,0.00,WUHU21623XXSP,2013-10-25 15:02:00,
2013-10-25 11:07:00,37.9,32.0,30.45,West,270,0.0,5.8,79,0.00,,,0.00,WUHU21623XXSP,2013-10-25 15:07:00,
2013-10-25 11:12:00,38.5,32.2,30.45,WSW,247,0.0,5.8,78,0.00,,,0.00,WUHU21623XXSP,2013-10-25 15:12:00,
2013-10-25 11:17:00,39.0,32.4,30.45,SSW,202,0.0,3.6,77,0.00,,,0.00,WUHU21623XXSP,2013-10-25 15:17:00,
2013-10-25 11:22:00,39.6,32.6,30.45,West,270,0.0,3.6,76,0.00,,,0.00,WUHU21623XXSP,2013-10-25 15:22:00,
2013-10-25 11:27:00,39.9,32.6,30.45,NNW,337,7.6,7.6,75,0.00,,,0.00,WUHU21623XXSP,2013-10-25 15:27:00,
2013-10-25 11:32:00,40.6,32.4,30.44,NW,315,6.7,7.6,72,0.00,,,0.00,WUHU21623XXSP,2013-10-25 15:32:00,
2013-10-25 11:37:00,41.2,32.5,30.45,NW,315,7.4,7.4,72,0.00,,,0.00,WUHU21623XXSP,2013-10-25 15:37:00,
2013-10-25 11:42:00,41.7,32.3,30.44,NW,315,6.7,8.3,69,0.00,,,0.00,WUHU21623XXSP,2013-10-25 15:42:00,
2013-10-25 11:47:00,42.6,32.6,30.44,NNW,337,6.0,8.3,66,0.00,,,0.00,WUHU21623XXSP,2013-10-25 15:47:00,
2013-10-25 11:52:00,43.2,32.2,30.45,NW,315,8.7,9.6,65,0.00,,,0.00,WUHU21623XXSP,2013-10-25 15:52:00,
2013-10-25 11:57:00,43.7,32.3,30.45,North,0,8.9,9.6,64,0.00,,,0.00,WUHU21623XXSP,2013-10-25 15:57:00,
2013-10-25 12:02:00,44.4,32.8,30.44,NW,315,8.7,8.9,62,0.00,,,0.00,WUHU21623XXSP,2013-10-25 16:02:00,
2013-10-25 12:07:00,45.3,32.3,30.44,WSW,247,2.7,8.7,61,0.00,,,0.00,WUHU21623XXSP,2013-10-25 16:07:00,
2013-10-25 12:12:00,45.7,31.7,30.44,NW,315,9.8,9.8,58,0.00,,,0.00,WUHU21623XXSP,2013-10-25 16:12:00,
2013-10-25 12:17:00,45.7,31.3,30.44,NNW,337,7.8,9.8,57,0.00,,,0.00,WUHU21623XXSP,2013-10-25 16:17:00,
2013-10-25 12:22:00,46.0,31.6,30.44,NW,315,7.6,8.5,57,0.00,,,0.00,WUHU21623XXSP,2013-10-25 16:22:00,
2013-10-25 12:27:00,46.6,31.6,30.44,NW,315,5.6,7.6,56,0.00,,,0.00,WUHU21623XXSP,2013-10-25 16:27:00,
2013-10-25 12:32:00,46.9,32.3,30.44,NW,315,3.4,6.7,57,0.00,,,0.00,WUHU21623XXSP,2013-10-25 16:32:00,
2013-10-25 12:37:00,47.5,32.0,30.44,NW,315,2.7,6.5,55,0.00,,,0.00,WUHU21623XXSP,2013-10-25 16:37:00,
2013-10-25 12:42:00,48.0,32.1,30.44,West,270,2.9,7.4,54,0.00,,,0.00,WUHU21623XXSP,2013-10-25 16:42:00,
2013-10-25 12:47:00,47.8,31.6,30.44,NW,315,9.6,9.6,52,0.00,,,0.00,WUHU21623XXSP,2013-10-25 16:47:00,
2013-10-25 12:52:00,48.0,31.0,30.44,NW,315,9.6,9.6,52,0.00,,,0.00,WUHU21623XXSP,2013-10-25 16:52:00,
2013-10-25 12:57:00,48.2,31.3,30.44,NW,315,6.5,9.6,52,0.00,,,0.00,WUHU21623XXSP,2013-10-25 16:57:00,
2013-10-25 13:02:00,48.4,31.5,30.44,NW,315,4.9,7.4,52,0.00,,,0.00,WUHU21623XXSP,2013-10-25 17:02:00,
2013-10-25 13:07:00,48.7,30.9,30.44,NNW,337,7.2,7.4,50,0.00,,,0.00,WUHU21623XXSP,2013-10-25 17:07:00,
2013-10-25 13:12:00,48.7,30.9,30.43,NW,315,6.9,7.2,49,0.00,,,0.00,WUHU21623XXSP,2013-10-25 17:12:00,
2013-10-25 13:17:00,48.7,31.4,30.43,SW,225,0.0,6.9,50,0.00,,,0.00,WUHU21623XXSP,2013-10-25 17:17:00,
2013-10-25 13:22:00,48.7,30.4,30.42,NW,315,6.9,6.9,49,0.00,,,0.00,WUHU21623XXSP,2013-10-25 17:22:00,
2013-10-25 13:27:00,48.4,30.0,30.43,NW,315,6.0,6.9,49,0.00,,,0.00,WUHU21623XXSP,2013-10-25 17:27:00,
2013-10-25 13:32:00,48.7,30.4,30.42,NW,315,4.0,7.8,49,0.00,,,0.00,WUHU21623XXSP,2013-10-25 17:32:00,
2013-10-25 13:37:00,48.9,30.9,30.42,NW,315,6.0,7.8,50,0.00,,,0.00,WUHU21623XXSP,2013-10-25 17:37:00,
2013-10-25 13:42:00,49.3,30.9,30.42,NW,315,8.3,8.3,49,0.00,,,0.00,WUHU21623XXSP,2013-10-25 17:42:00,
2013-10-25 13:47:00,49.6,30.1,30.42,North,0,9.2,9.2,47,0.00,,,0.00,WUHU21623XXSP,2013-10-25 17:47:00,
2013-10-25 13:52:00,49.8,31.4,30.42,NNW,337,3.8,9.2,49,0.00,,,0.00,WUHU21623XXSP,2013-10-25 17:52:00,
2013-10-25 13:57:00,49.8,30.9,30.41,WNW,292,4.3,5.8,48,0.00,,,0.00,WUHU21623XXSP,2013-10-25 17:57:00,
2013-10-25 14:02:00,50.2,31.2,30.41,NW,315,1.1,5.8,48,0.00,,,0.00,WUHU21623XXSP,2013-10-25 18:02:00,
2013-10-25 14:07:00,50.4,30.8,30.41,NNW,337,10.1,10.1,47,0.00,,,0.00,WUHU21623XXSP,2013-10-25 18:07:00,
2013-10-25 14:12:00,50.4,30.8,30.41,North,0,6.0,10.1,47,0.00,,,0.00,WUHU21623XXSP,2013-10-25 18:12:00,
2013-10-25 14:17:00,49.6,30.7,30.40,SW,225,6.0,6.0,48,0.00,,,0.00,WUHU21623XXSP,2013-10-25 18:17:00,
2013-10-25 14:22:00,49.3,30.3,30.40,West,270,1.3,6.0,48,0.00,,,0.00,WUHU21623XXSP,2013-10-25 18:22:00,
2013-10-25 14:27:00,49.8,30.3,30.40,NNW,337,6.9,6.9,47,0.00,,,0.00,WUHU21623XXSP,2013-10-25 18:27:00,
2013-10-25 14:32:00,50.2,29.0,30.40,NNW,337,7.6,7.6,44,0.00,,,0.00,WUHU21623XXSP,2013-10-25 18:32:00,
2013-10-25 14:37:00,50.2,29.0,30.40,WNW,292,1.6,8.9,44,0.00,,,0.00,WUHU21623XXSP,2013-10-25 18:37:00,
2013-10-25 14:42:00,49.8,29.8,30.39,SW,225,0.0,8.9,46,0.00,,,0.00,WUHU21623XXSP,2013-10-25 18:42:00,
2013-10-25 14:47:00,49.3,29.8,30.39,SSE,157,0.0,1.3,47,0.00,,,0.00,WUHU21623XXSP,2013-10-25 18:47:00,
2013-10-25 14:52:00,49.8,30.3,30.39,WSW,247,4.3,4.3,47,0.00,,,0.00,WUHU21623XXSP,2013-10-25 18:52:00,
2013-10-25 14:57:00,50.5,31.2,30.39,WNW,292,0.0,4.3,48,0.00,,,0.00,WUHU21623XXSP,2013-10-25 18:57:00,
2013-10-25 15:02:00,51.3,30.5,30.38,WSW,247,5.4,7.4,45,0.00,,,0.00,WUHU21623XXSP,2013-10-25 19:02:00,
2013-10-25 15:07:00,51.1,30.5,30.38,NW,315,5.6,7.4,45,0.00,,,0.00,WUHU21623XXSP,2013-10-25 19:07:00,
2013-10-25 15:12:00,51.1,30.9,30.38,NW,315,5.6,5.6,46,0.00,,,0.00,WUHU21623XXSP,2013-10-25 19:12:00,
2013-10-25 15:17:00,51.8,31.8,30.38,SSW,202,1.1,5.6,48,0.00,,,0.00,WUHU21623XXSP,2013-10-25 19:17:00,
2013-10-25 15:22:00,52.5,32.8,30.38,SW,225,2.0,3.4,47,0.00,,,0.00,WUHU21623XXSP,2013-10-25 19:22:00,
2013-10-25 15:27:00,52.9,32.5,30.38,NW,315,0.0,2.0,46,0.00,,,0.00,WUHU21623XXSP,2013-10-25 19:27:00,
2013-10-25 15:32:00,53.2,32.9,30.38,WSW,247,0.0,7.4,46,0.00,,,0.00,WUHU21623XXSP,2013-10-25 19:32:00,
2013-10-25 15:37:00,53.2,32.3,30.38,WSW,247,2.9,7.4,45,0.00,,,0.00,WUHU21623XXSP,2013-10-25 19:37:00,
2013-10-25 15:42:00,53.1,32.1,30.38,SW,225,4.9,4.9,45,0.00,,,0.00,WUHU21623XXSP,2013-10-25 19:42:00,
2013-10-25 15:47:00,52.9,31.4,30.37,WNW,292,2.0,4.9,44,0.00,,,0.00,WUHU21623XXSP,2013-10-25 19:47:00,
2013-10-25 15:52:00,52.7,31.4,30.37,SW,225,2.5,4.3,44,0.00,,,0.00,WUHU21623XXSP,2013-10-25 19:52:00,
2013-10-25 15:57:00,52.5,31.1,30.37,NW,315,2.0,2.5,44,0.00,,,0.00,WUHU21623XXSP,2013-10-25 19:57:00,
2013-10-25 16:02:00,52.3,31.1,30.37,WSW,247,5.8,5.8,44,0.00,,,0.00,WUHU21623XXSP,2013-10-25 20:02:00,
2013-10-25 16:07:00,52.2,31.3,30.37,WSW,247,0.0,5.8,45,0.00,,,0.00,WUHU21623XXSP,2013-10-25 20:07:00,
2013-10-25 16:12:00,52.5,31.5,30.37,WSW,247,0.0,0.0,45,0.00,,,0.00,WUHU21623XXSP,2013-10-25 20:12:00,
2013-10-25 16:17:00,52.5,31.1,30.37,SW,225,3.1,5.6,44,0.00,,,0.00,WUHU21623XXSP,2013-10-25 20:17:00,
2013-10-25 16:22:00,52.2,30.9,30.37,West,270,0.0,5.6,44,0.00,,,0.00,WUHU21623XXSP,2013-10-25 20:22:00,
2013-10-25 16:27:00,52.0,31.2,30.37,SW,225,4.7,4.7,45,0.00,,,0.00,WUHU21623XXSP,2013-10-25 20:27:00,
2013-10-25 16:32:00,51.6,30.3,30.36,West,270,6.0,6.0,44,0.00,,,0.00,WUHU21623XXSP,2013-10-25 20:32:00,
2013-10-25 16:37:00,51.4,30.7,30.36,WSW,247,0.0,6.0,45,0.00,,,0.00,WUHU21623XXSP,2013-10-25 20:37:00,
2013-10-25 16:42:00,51.4,30.7,30.36,SW,225,2.9,2.9,45,0.00,,,0.00,WUHU21623XXSP,2013-10-25 20:42:00,
2013-10-25 16:47:00,51.4,30.7,30.36,WSW,247,3.6,3.6,45,0.00,,,0.00,WUHU21623XXSP,2013-10-25 20:47:00,
2013-10-25 16:52:00,51.4,30.1,30.36,WSW,247,2.2,3.6,44,0.00,,,0.00,WUHU21623XXSP,2013-10-25 20:52:00,
2013-10-25 16:57:00,51.4,30.7,30.36,WSW,247,1.8,3.4,45,0.00,,,0.00,WUHU21623XXSP,2013-10-25 20:57:00,
2013-10-25 17:02:00,51.1,30.4,30.35,WSW,247,0.0,3.4,45,0.00,,,0.00,WUHU21623XXSP,2013-10-25 21:02:00,
2013-10-25 17:07:00,51.3,30.5,30.35,WSW,247,6.0,6.0,45,0.00,,,0.00,WUHU21623XXSP,2013-10-25 21:07:00,
2013-10-25 17:12:00,51.1,30.4,30.35,WSW,247,2.5,6.0,45,0.00,,,0.00,WUHU21623XXSP,2013-10-25 21:12:00,
2013-10-25 17:17:00,50.9,29.6,30.35,SW,225,4.5,5.1,44,0.00,,,0.00,WUHU21623XXSP,2013-10-25 21:17:00,
2013-10-25 17:22:00,50.7,30.0,30.35,SSW,202,1.1,4.5,45,0.00,,,0.00,WUHU21623XXSP,2013-10-25 21:22:00,
2013-10-25 17:27:00,50.4,29.7,30.35,West,270,4.3,4.3,45,0.00,,,0.00,WUHU21623XXSP,2013-10-25 21:27:00,
2013-10-25 17:32:00,50.0,29.4,30.35,NW,315,0.0,4.3,45,0.00,,,0.00,WUHU21623XXSP,2013-10-25 21:32:00,
2013-10-25 17:37:00,49.6,29.0,30.35,West,270,0.0,4.3,45,0.00,,,0.00,WUHU21623XXSP,2013-10-25 21:37:00,
2013-10-25 17:42:00,49.3,28.7,30.35,WSW,247,0.9,1.8,45,0.00,,,0.00,WUHU21623XXSP,2013-10-25 21:42:00,
2013-10-25 17:47:00,49.1,29.1,30.35,WSW,247,0.0,3.6,46,0.00,,,0.00,WUHU21623XXSP,2013-10-25 21:47:00,
2013-10-25 17:52:00,48.7,28.7,30.34,SSW,202,4.5,4.5,46,0.00,,,0.00,WUHU21623XXSP,2013-10-25 21:52:00,
2013-10-25 17:57:00,48.4,28.4,30.34,WSW,247,0.0,4.5,46,0.00,,,0.00,WUHU21623XXSP,2013-10-25 21:57:00,
2013-10-25 18:02:00,47.8,27.9,30.34,SW,225,0.0,0.0,46,0.00,,,0.00,WUHU21623XXSP,2013-10-25 22:02:00,
2013-10-25 18:07:00,47.3,27.4,30.34,WSW,247,0.0,4.9,46,0.00,,,0.00,WUHU21623XXSP,2013-10-25 22:07:00,
2013-10-25 18:12:00,46.9,27.8,30.34,SW,225,1.3,4.9,47,0.00,,,0.00,WUHU21623XXSP,2013-10-25 22:12:00,
2013-10-25 18:17:00,46.6,27.8,30.34,SW,225,0.0,1.3,48,0.00,,,0.00,WUHU21623XXSP,2013-10-25 22:17:00,
2013-10-25 18:22:00,46.2,27.5,30.34,SW,225,1.3,1.8,48,0.00,,,0.00,WUHU21623XXSP,2013-10-25 22:22:00,
2013-10-25 18:27:00,46.0,27.4,30.34,SW,225,1.3,1.8,48,0.00,,,0.00,WUHU21623XXSP,2013-10-25 22:27:00,
2013-10-25 18:32:00,45.1,27.1,30.34,SW,225,0.0,1.3,49,0.00,,,0.00,WUHU21623XXSP,2013-10-25 22:32:00,
2013-10-25 18:37:00,44.6,27.1,30.34,SW,225,0.0,1.1,50,0.00,,,0.00,WUHU21623XXSP,2013-10-25 22:37:00,
2013-10-25 18:42:00,43.7,26.3,30.33,SW,225,0.0,0.0,50,0.00,,,0.00,WUHU21623XXSP,2013-10-25 22:42:00,
2013-10-25 18:47:00,43.2,26.3,30.33,SW,225,0.0,0.0,51,0.00,,,0.00,WUHU21623XXSP,2013-10-25 22:47:00,
2013-10-25 18:52:00,42.6,25.8,30.33,SW,225,0.0,0.0,51,0.00,,,0.00,WUHU21623XXSP,2013-10-25 22:52:00,
2013-10-25 18:57:00,41.5,25.5,30.33,SW,225,0.0,0.0,52,0.00,,,0.00,WUHU21623XXSP,2013-10-25 22:57:00,
2013-10-25 19:02:00,40.8,24.9,30.33,SW,225,0.0,0.0,53,0.00,,,0.00,WUHU21623XXSP,2013-10-25 23:02:00,
2013-10-25 19:07:00,40.3,24.4,30.33,SW,225,0.0,0.0,53,0.00,,,0.00,WUHU21623XXSP,2013-10-25 23:07:00,
2013-10-25 19:12:00,39.9,24.5,30.33,SW,225,0.0,0.0,54,0.00,,,0.00,WUHU21623XXSP,2013-10-25 23:12:00,
2013-10-25 19:17:00,39.0,23.7,30.33,SW,225,0.0,0.0,54,0.00,,,0.00,WUHU21623XXSP,2013-10-25 23:17:00,
2013-10-25 19:22:00,38.7,23.5,30.33,SW,225,0.0,0.0,54,0.00,,,0.00,WUHU21623XXSP,2013-10-25 23:22:00,
2013-10-25 19:27:00,37.9,23.1,30.33,SW,225,0.0,0.0,55,0.00,,,0.00,WUHU21623XXSP,2013-10-25 23:27:00,
2013-10-25 19:32:00,37.8,23.1,30.33,SW,225,0.0,0.0,56,0.00,,,0.00,WUHU21623XXSP,2013-10-25 23:32:00,
2013-10-25 19:41:00,37.2,23.3,30.32,SW,225,0.0,0.0,57,0.00,,,0.00,WUHU21623XXSP,2013-10-25 23:41:00,
2013-10-25 19:46:00,37.0,23.2,30.32,SW,225,0.0,0.0,57,0.00,,,0.00,WUHU21623XXSP,2013-10-25 23:46:00,
2013-10-25 19:51:00,36.7,23.3,30.32,SW,225,0.0,0.0,58,0.00,,,0.00,WUHU21623XXSP,2013-10-25 23:51:00,
2013-10-25 19:56:00,36.5,23.6,30.32,SW,225,0.0,0.0,59,0.00,,,0.00,WUHU21623XXSP,2013-10-25 23:56:00,
2013-10-25 20:01:00,36.5,23.6,30.32,SW,225,0.0,0.0,59,0.00,,,0.00,WUHU21623XXSP,2013-10-26 00:01:00,
2013-10-25 20:06:00,36.3,23.8,30.32,SSW,202,0.9,1.3,60,0.00,,,0.00,WUHU21623XXSP,2013-10-26 00:06:00,
2013-10-25 20:11:00,36.5,24.4,30.32,SSW,202,0.9,1.8,61,0.00,,,0.00,WUHU21623XXSP,2013-10-26 00:11:00,
2013-10-25 20:16:00,36.7,24.5,30.32,SSW,202,2.2,2.2,61,0.00,,,0.00,WUHU21623XXSP,2013-10-26 00:16:00,
2013-10-25 20:21:00,36.7,24.9,30.32,SSW,202,1.1,2.2,62,0.00,,,0.00,WUHU21623XXSP,2013-10-26 00:21:00,
2013-10-25 20:26:00,36.7,24.9,30.32,SSW,202,1.3,1.8,62,0.00,,,0.00,WUHU21623XXSP,2013-10-26 00:26:00,
2013-10-25 20:31:00,36.7,24.9,30.31,SSW,202,1.6,1.6,62,0.00,,,0.00,WUHU21623XXSP,2013-10-26 00:31:00,
2013-10-25 20:36:00,36.5,24.7,30.31,SSW,202,1.8,1.8,62,0.00,,,0.00,WUHU21623XXSP,2013-10-26 00:36:00,
2013-10-25 20:41:00,36.5,24.7,30.31,SSW,202,1.8,1.8,62,0.00,,,0.00,WUHU21623XXSP,2013-10-26 00:41:00,
2013-10-25 20:46:00,36.5,24.5,30.31,SSW,202,1.1,1.8,63,0.00,,,0.00,WUHU21623XXSP,2013-10-26 00:46:00,
2013-10-25 20:51:00,36.5,25.1,30.31,SSW,202,2.7,2.9,63,0.00,,,0.00,WUHU21623XXSP,2013-10-26 00:51:00,
2013-10-25 20:56:00,36.3,24.9,30.30,SSW,202,2.9,3.1,63,0.00,,,0.00,WUHU21623XXSP,2013-10-26 00:56:00,
2013-10-25 21:01:00,36.3,25.3,30.30,SSW,202,2.2,4.3,64,0.00,,,0.00,WUHU21623XXSP,2013-10-26 01:01:00,
2013-10-25 21:06:00,36.1,25.1,30.30,South,180,4.5,4.5,64,0.00,,,0.00,WUHU21623XXSP,2013-10-26 01:06:00,
2013-10-25 21:11:00,36.1,25.1,30.30,South,180,3.8,4.5,64,0.00,,,0.00,WUHU21623XXSP,2013-10-26 01:11:00,
2013-10-25 21:16:00,36.0,24.9,30.30,South,180,3.8,3.8,64,0.00,,,0.00,WUHU21623XXSP,2013-10-26 01:16:00,
2013-10-25 21:21:00,35.8,25.1,30.29,South,180,3.6,3.8,65,0.00,,,0.00,WUHU21623XXSP,2013-10-26 01:21:00,
2013-10-25 21:26:00,35.4,24.8,30.29,South,180,2.0,4.3,65,0.00,,,0.00,WUHU21623XXSP,2013-10-26 01:26:00,
2013-10-25 21:31:00,35.2,24.6,30.29,South,180,4.5,4.5,65,0.00,,,0.00,WUHU21623XXSP,2013-10-26 01:31:00,
2013-10-25 21:36:00,35.2,25.0,30.29,South,180,2.7,4.5,66,0.00,,,0.00,WUHU21623XXSP,2013-10-26 01:36:00,
2013-10-25 21:41:00,34.9,24.6,30.29,South,180,3.4,4.3,66,0.00,,,0.00,WUHU21623XXSP,2013-10-26 01:41:00,
2013-10-25 21:46:00,34.9,25.0,30.28,South,180,4.3,4.3,67,0.00,,,0.00,WUHU21623XXSP,2013-10-26 01:46:00,
2013-10-25 21:51:00,34.5,24.6,30.28,South,180,2.5,4.3,67,0.00,,,0.00,WUHU21623XXSP,2013-10-26 01:51:00,
2013-10-25 21:56:00,34.5,24.6,30.28,South,180,2.5,4.0,67,0.00,,,0.00,WUHU21623XXSP,2013-10-26 01:56:00,
2013-10-25 22:01:00,34.3,24.8,30.28,South,180,2.7,2.7,68,0.00,,,0.00,WUHU21623XXSP,2013-10-26 02:01:00,
2013-10-25 22:06:00,34.3,24.8,30.28,South,180,2.7,3.4,68,0.00,,,0.00,WUHU21623XXSP,2013-10-26 02:06:00,
2013-10-25 22:11:00,34.3,25.2,30.28,South,180,2.9,3.4,69,0.00,,,0.00,WUHU21623XXSP,2013-10-26 02:11:00,
2013-10-25 22:16:00,34.3,25.2,30.28,South,180,3.6,3.6,69,0.00,,,0.00,WUHU21623XXSP,2013-10-26 02:16:00,
2013-10-25 22:21:00,34.3,25.2,30.28,South,180,2.5,4.3,69,0.00,,,0.00,WUHU21623XXSP,2013-10-26 02:21:00,
2013-10-25 22:26:00,34.3,25.2,30.28,South,180,4.3,4.3,69,0.00,,,0.00,WUHU21623XXSP,2013-10-26 02:26:00,
2013-10-25 22:31:00,34.3,25.5,30.28,South,180,4.5,4.5,70,0.00,,,0.00,WUHU21623XXSP,2013-10-26 02:31:00,
2013-10-25 22:36:00,34.5,25.7,30.27,South,180,4.9,6.0,70,0.00,,,0.00,WUHU21623XXSP,2013-10-26 02:36:00,
2013-10-25 22:41:00,34.7,25.9,30.27,South,180,4.9,6.0,70,0.00,,,0.00,WUHU21623XXSP,2013-10-26 02:41:00,
2013-10-25 22:46:00,34.9,26.1,30.28,South,180,4.0,4.9,70,0.00,,,0.00,WUHU21623XXSP,2013-10-26 02:46:00,
2013-10-25 22:51:00,34.9,26.1,30.27,SSE,157,3.4,4.0,70,0.00,,,0.00,WUHU21623XXSP,2013-10-26 02:51:00,
2013-10-25 22:56:00,34.9,26.1,30.27,South,180,3.6,4.0,70,0.00,,,0.00,WUHU21623XXSP,2013-10-26 02:56:00,
2013-10-25 23:01:00,34.9,26.1,30.28,South,180,3.6,3.8,70,0.00,,,0.00,WUHU21623XXSP,2013-10-26 03:01:00,
2013-10-25 23:06:00,34.9,26.1,30.28,South,180,4.9,4.9,70,0.00,,,0.00,WUHU21623XXSP,2013-10-26 03:06:00,
2013-10-25 23:11:00,35.2,26.4,30.27,South,180,3.1,4.9,70,0.00,,,0.00,WUHU21623XXSP,2013-10-26 03:11:00,
2013-10-25 23:16:00,35.2,26.4,30.27,South,180,4.5,4.5,70,0.00,,,0.00,WUHU21623XXSP,2013-10-26 03:16:00,
2013-10-25 23:21:00,35.2,26.4,30.27,SSE,157,3.6,4.5,70,0.00,,,0.00,WUHU21623XXSP,2013-10-26 03:21:00,
2013-10-25 23:26:00,35.2,26.4,30.27,South,180,3.1,4.5,70,0.00,,,0.00,WUHU21623XXSP,2013-10-26 03:26:00,
2013-10-25 23:31:00,35.2,26.4,30.27,South,180,4.3,4.3,70,0.00,,,0.00,WUHU21623XXSP,2013-10-26 03:31:00,
2013-10-25 23:36:00,35.2,26.4,30.27,South,180,4.3,4.3,70,0.00,,,0.00,WUHU21623XXSP,2013-10-26 03:36:00,
2013-10-25 23:41:00,34.7,25.9,30.27,South,180,3.4,4.3,70,0.00,,,0.00,WUHU21623XXSP,2013-10-26 03:41:00,
2013-10-25 23:46:00,34.3,25.5,30.26,South,180,2.5,3.4,70,0.00,,,0.00,WUHU21623XXSP,2013-10-26 03:46:00,
2013-10-25 23:51:00,34.3,25.5,30.26,South,180,2.9,3.4,70,0.00,,,0.00,WUHU21623XXSP,2013-10-26 03:51:00,
2013-10-25 23:56:00,34.3,25.8,30.26,South,180,3.1,3.4,71,0.00,,,0.00,WUHU21623XXSP,2013-10-26 03:56:00,